AirNav   Bose ProFlight Aviation Headset
 
 932 users online  

2XA0 Foard County Airport
Crowell, Texas, USA

GOING TO CROWELL?


FAA INFORMATION EFFECTIVE 08 NOVEMBER 2018

Location

FAA Identifier: 2XA0
Lat/Long: 33-58-45.3030N / 099-42-46.3350W
33-58.755050N / 099-42.772250W
33.9792508 / -99.7128708
(estimated)
Elevation: 1479 ft. / 450.8 m (surveyed)
Variation: 08E (1985)
From city: 1 mile E of CROWELL, TX
Time zone: UTC -6 (UTC -5 during Daylight Saving Time)
Zip code: 79227

Airport Operations

Airport use: Private use. Permission required prior to landing
Activation date: 10/1946
Control tower: no
ARTCC: FORT WORTH CENTER
FSS: FORT WORTH FLIGHT SERVICE STATION
Attendance: UNATNDD
Wind indicator: yes
Segmented circle: yes
Beacon: white-green (lighted land airport)
ROTG BCN OTS INDEFLY. Operates sunset to sunrise.

Nearby radio navigation aids

VOR radial/distance  VOR name  Freq  Var
GTHr059/33.3GUTHRIE VORTAC114.5010E
CDSr119/36.9CHILDRESS VORTAC117.6010E

Airport Services

Parking: tiedowns
Airframe service: NONE
Powerplant service: NONE
Bottled oxygen: NONE
Bulk oxygen: NONE

Runway Information

Runway 17/35

Dimensions: 3200 x 39 ft. / 975 x 12 m
Surface: asphalt, in poor condition
RY PAVEMENT HAS GRASS ENCROACHMENT.
Weight bearing capacity: 
Single wheel: 8.0
Runway edge lights: medium intensity
MIRL OTS INDEFLY.
Runway edge markings: RY MARKINGS FADED.
RUNWAY 17  RUNWAY 35
Gradient: 0.9%0.9%
Traffic pattern: leftleft
Markings: basic, in poor conditionbasic, in poor condition
Obstructions: 15 ft. road, 490 ft. from runway, 19:1 slope to clearnone
+10 FT TREE 55 FT LEFT 135 FT SOUTH OF THLD.

Airport Ownership and Management from official FAA records

Ownership: Publicly-owned
Owner: FOARD COUNTY
COUNTY COURTHOUSE, PO BOX 660
CROWELL, TX 79227
Phone 940-684-1424
Manager: MARK CHRISTOPHER
COUNTY COURTHOUSE, PO BOX 660
CROWELL, TX 79227
Phone 940-684-1424

Airport Operational Statistics

Aircraft operations: avg 42/month *
100% transient general aviation
* for 12-month period ending 17 February 2004

Additional Remarks

ARPT CLSD NIGHTS.

Instrument Procedures

There are no published instrument procedures at 2XA0.

Some nearby airports with instrument procedures:

F05 - Wilbarger County Airport (26 nm NE)
3F6 - Dan E Richards Municipal Airport (28 nm W)
60F - Seymour Municipal Airport (30 nm SE)
KCDS - Childress Municipal Airport (39 nm NW)
KFDR - Frederick Regional Airport (43 nm NE)
 
Loc | Ops | Rwys | IFR | FBO | Links
Com | Nav | Svcs | Stats | Notes


 
Area around 2XA0 (Foard County Airport)
 
Road maps at: MapQuest Bing Google
 
Aerial photo
No photo
 
Sectional chart

 
Airport distance calculator
Flying to Foard County Airport? Find the distance to fly.

From to 2XA0

Sunrise and sunset
Times for 18-Nov-2018
 Local
(UTC-6)
 Zulu
(UTC)
Morning civil twilight06:4912:49
Sunrise07:1513:15
Sunset17:3323:33
Evening civil twilight18:0024:00

Current date and time
Zulu (UTC)  18-Nov-2018 18:47:20
Local (UTC-6)  18-Nov-2018 12:47:20
 
METAR
KF05 
26nm NE 
181835Z AUTO RMK AO1 PNO TSNO
KCDS 
39nm NW 
181831Z AUTO 33008KT 10SM SCT023 OVC037 03/M03 A3032 RMK AO2 T00281033
KFDR 
43nm NE 
181813Z AUTO 34012KT 10SM SCT019 OVC036 02/M03 A3031 RMK AO2 T00221028
KLTS 
47nm NE 
181756Z AUTO 35006KT 10SM OVC021 02/M06 A3035 RMK AO2 SLP287 T00161056 10016 21009 58006 $
KAXS 
47nm NE 
181835Z AUTO 35011G15KT 10SM BKN024 OVC039 03/M04 A3035 RMK AO2 T00261040
TAF
KCDS 
39nm NW 
181756Z 1818/1918 36008KT P6SM BKN020 OVC035 TEMPO 1818/1820 SCT020 OVC035 FM182300 VRB04KT P6SM BKN250 FM190400 22006KT P6SM SCT250
NOTAMs
Click for the latest NOTAMs
NOTAMs are issued by the DoD/FAA and will open in a separate window not controlled by AirNav.

 

 
 

Would you like to see your business listed on this page?

 If your business provides an interesting product or service to pilots, flight crews, aircraft, or users of the Foard County Airport, you should consider listing it here.  To start the listing process, click on the button below
 
Add a business
 

Other Pages about Foard County Airport

Update a link
 
Copyright © AirNav, LLC. All rights reserved. Privacy Policy  Contact